Central Airport


Codes: PACE/CEM
Name: Central Airport
City: Central
Country: United States
Elevation: 937 ft.
Wikipedia:

Photos at Central Airport


   Photos courtesy of SpottingLog. You can add your own sightings and photos by signing up for a free trial today.



No photos found.

Weather at Central Airport


Time (UTC)DescriptionTempratureWindCloud coverageVisibilityPressureHumidity
26-Jun-2024 00:00Broken Clouds23°C4 mph, N77%10000m1014hPa38%
26-Jun-2024 03:00Broken Clouds23°C2 mph, NW82%10000m1014hPa40%
26-Jun-2024 06:00Broken Clouds22°C2 mph, N72%10000m1013hPa46%
26-Jun-2024 09:00Scattered Clouds17°C2 mph, W36%10000m1014hPa55%
26-Jun-2024 12:00Few Clouds15°C2 mph, W24%10000m1014hPa60%
26-Jun-2024 15:00Clear Sky20°C0 mph, SE6%10000m1013hPa51%
26-Jun-2024 18:00Clear Sky24°C7 mph, E3%10000m1012hPa36%
26-Jun-2024 21:00Clear Sky26°C9 mph, NE3%10000m1011hPa27%
27-Jun-2024 00:00Clear Sky27°C9 mph, NE8%10000m1010hPa25%
27-Jun-2024 03:00Scattered Clouds27°C9 mph, NE37%10000m1009hPa26%
27-Jun-2024 06:00Broken Clouds23°C7 mph, E56%10000m1009hPa38%
27-Jun-2024 09:00Overcast Clouds18°C2 mph, NE92%10000m1010hPa52%
27-Jun-2024 12:00Scattered Clouds15°C0 mph, N50%10000m1010hPa60%
27-Jun-2024 15:00Clear Sky19°C2 mph, NE0%10000m1010hPa50%
27-Jun-2024 18:00Clear Sky23°C4 mph, E0%10000m1009hPa36%
27-Jun-2024 21:00Clear Sky27°C4 mph, NE0%10000m1007hPa26%
28-Jun-2024 00:00Clear Sky28°C2 mph, N1%10000m1006hPa22%
28-Jun-2024 03:00Scattered Clouds28°C7 mph, NE35%10000m1005hPa24%
28-Jun-2024 06:00Broken Clouds22°C4 mph, SE64%10000m1006hPa41%
28-Jun-2024 09:00Overcast Clouds15°C4 mph, SW96%10000m1007hPa74%
28-Jun-2024 12:00Overcast Clouds15°C4 mph, SW89%10000m1008hPa76%
28-Jun-2024 15:00Overcast Clouds18°C4 mph, SW99%10000m1008hPa65%
28-Jun-2024 18:00Overcast Clouds23°C2 mph, W90%10000m1008hPa47%
28-Jun-2024 21:00Light Rain26°C0 mph, NE31%10000m1007hPa32%
29-Jun-2024 00:00Broken Clouds28°C2 mph, NE53%10000m1006hPa25%
29-Jun-2024 03:00Broken Clouds24°C7 mph, W62%10000m1007hPa43%
29-Jun-2024 06:00Broken Clouds19°C4 mph, SW80%10000m1008hPa68%
29-Jun-2024 09:00Overcast Clouds16°C4 mph, SW98%10000m1009hPa73%
29-Jun-2024 12:00Overcast Clouds15°C2 mph, SW99%10000m1009hPa67%
29-Jun-2024 15:00Overcast Clouds19°C2 mph, SW100%10000m1009hPa56%
29-Jun-2024 18:00Overcast Clouds22°C2 mph, SW100%10000m1008hPa46%
29-Jun-2024 21:00Overcast Clouds25°C2 mph, E100%10000m1008hPa40%
30-Jun-2024 00:00Overcast Clouds26°C2 mph, E100%10000m1007hPa36%
30-Jun-2024 03:00Light Rain19°C7 mph, S100%10000m1007hPa73%
30-Jun-2024 06:00Light Rain18°C4 mph, SW100%10000m1007hPa77%
30-Jun-2024 09:00Light Rain16°C4 mph, SW98%10000m1008hPa80%
30-Jun-2024 12:00Overcast Clouds15°C4 mph, SW96%10000m1008hPa78%
30-Jun-2024 15:00Broken Clouds20°C2 mph, W70%10000m1007hPa64%
30-Jun-2024 18:00Broken Clouds25°C2 mph, N77%10000m1007hPa44%
30-Jun-2024 21:00Scattered Clouds27°C2 mph, N38%10000m1007hPa36%